Time;durP1;ratioP1;P1;durP2;ratioP2;P2;SDS_P1;SDS_P2;PMS_P1;PMS_P2;Temp;Humidity;BMP_temperature;BMP_pressure;BME280_temperature;BME280_humidity;BME280_pressure;Samples;Min_cycle;Max_cycle;Signal;HPM_P1;HPM_P2
2021/06/04 09:10:25;;;;;;;1.73;1.08;;;;;;;;;;5135124;27;20038;-76
2021/06/04 09:13:01;;;;;;;1.85;1.10;;;;;;;;;;5134000;27;20497;-76
2021/06/04 09:15:29;;;;;;;2.22;0.98;;;;;;;;;;5133973;27;20434;-76
2021/06/04 09:18:02;;;;;;;1.52;1.00;;;;;;;;;;5134373;27;20075;-76
2021/06/04 09:20:32;;;;;;;1.50;0.98;;;;;;;;;;5100379;27;20053;-76
2021/06/04 09:23:02;;;;;;;2.08;1.08;;;;;;;;;;5134482;27;20492;-76
2021/06/04 09:25:28;;;;;;;1.17;0.80;;;;;;;;;;5133913;27;20037;-76
2021/06/04 09:28:08;;;;;;;1.77;1.00;;;;;;;;;;5134591;27;20027;-75
2021/06/04 09:30:35;;;;;;;1.65;1.00;;;;;;;;;;5135148;27;20027;-76
2021/06/04 09:33:10;;;;;;;1.65;0.98;;;;;;;;;;5134268;27;20026;-76
2021/06/04 09:35:38;;;;;;;1.30;1.00;;;;;;;;;;5133820;27;20034;-76
2021/06/04 09:38:17;;;;;;;2.08;1.00;;;;;;;;;;5117083;27;20110;-76
2021/06/04 09:40:43;;;;;;;1.50;1.02;;;;;;;;;;5133852;27;20474;-76
2021/06/04 09:43:19;;;;;;;1.50;0.97;;;;;;;;;;5134059;27;20107;-76
2021/06/04 09:45:57;;;;;;;1.87;1.20;;;;;;;;;;5133768;27;20062;-76
2021/06/04 09:49:00;;;;;;;1.40;1.00;;;;;;;;;;5133759;27;20268;-76
2021/06/04 09:57:26;;;;;;;3.22;1.00;;;;;;;;;;5113464;28;20044;-89
2021/06/04 10:00:15;;;;;;;1.67;1.00;;;;;;;;;;5052797;28;20055;-89
2021/06/04 10:03:50;;;;;;;1.42;0.90;;;;;;;;;;5083984;28;20038;-90
2021/06/04 10:07:03;;;;;;;1.50;1.00;;;;;;;;;;5093556;28;20032;-89
2021/06/04 10:10:00;;;;;;;1.80;0.93;;;;;;;;;;5116268;28;20035;-89
2021/06/04 10:13:54;;;;;;;1.55;1.00;;;;;;;;;;5115326;28;20398;-90
2021/06/04 10:21:22;;;;;;;1.73;1.10;;;;;;;;;;5013042;28;20026;-89
2021/06/04 10:24:30;;;;;;;1.92;1.20;;;;;;;;;;5031374;28;20032;-89
2021/06/04 10:27:36;;;;;;;1.75;1.05;;;;;;;;;;5036499;28;20025;-90
2021/06/04 10:30:26;;;;;;;2.50;1.00;;;;;;;;;;5031121;28;20025;-89
2021/06/04 10:33:15;;;;;;;1.83;1.20;;;;;;;;;;5114432;28;20046;-90
2021/06/04 11:30:44;;;;;;;1.58;1.00;;;;;;;;;;5118045;28;20511;-90
2021/06/04 11:33:30;;;;;;;2.97;0.95;;;;;;;;;;5099975;28;20036;-90
2021/06/04 11:36:09;;;;;;;1.50;0.88;;;;;;;;;;5082489;28;20092;-90
2021/06/04 11:39:07;;;;;;;2.03;1.00;;;;;;;;;;5082144;28;20052;-90
2021/06/04 11:41:34;;;;;;;1.30;0.90;;;;;;;;;;5084753;28;20488;-89
2021/06/04 11:44:06;;;;;;;1.50;0.90;;;;;;;;;;5081957;28;20080;-90
2021/06/04 11:46:32;;;;;;;1.55;1.10;;;;;;;;;;5082169;28;20026;-89
2021/06/04 11:49:01;;;;;;;1.35;0.98;;;;;;;;;;5065782;28;20024;-89
2021/06/04 11:51:47;;;;;;;1.35;0.90;;;;;;;;;;5098627;28;20035;-90
2021/06/04 11:54:31;;;;;;;1.58;0.98;;;;;;;;;;5085039;28;20123;-90
2021/06/04 11:57:33;;;;;;;1.13;0.82;;;;;;;;;;5116803;28;20385;-90
2021/06/04 12:00:36;;;;;;;2.00;1.10;;;;;;;;;;5132065;27;20019;-89
2021/06/04 12:03:04;;;;;;;2.05;1.00;;;;;;;;;;5101044;28;20034;-90
2021/06/04 12:05:40;;;;;;;2.60;1.13;;;;;;;;;;5118560;27;20027;-90
2021/06/04 12:08:20;;;;;;;1.90;1.10;;;;;;;;;;5102098;27;20146;-91
2021/06/04 12:10:49;;;;;;;1.60;0.98;;;;;;;;;;5138387;27;20027;-90
2021/06/04 12:13:32;;;;;;;1.80;1.00;;;;;;;;;;5115517;28;20490;-91
2021/06/04 12:16:26;;;;;;;1.73;1.00;;;;;;;;;;5115617;28;20031;-90
2021/06/04 12:18:59;;;;;;;1.63;1.02;;;;;;;;;;5118443;27;20019;-90
2021/06/04 12:21:44;;;;;;;1.75;1.00;;;;;;;;;;5100313;27;20096;-90
2021/06/04 12:24:21;;;;;;;1.38;1.00;;;;;;;;;;5135685;27;20032;-90
2021/06/04 12:26:52;;;;;;;1.65;1.13;;;;;;;;;;5119412;27;20047;-90
2021/06/04 12:29:20;;;;;;;1.42;1.00;;;;;;;;;;5103894;27;20026;-92
2021/06/04 12:32:16;;;;;;;1.50;1.00;;;;;;;;;;5136651;27;20374;-90
2021/06/04 12:34:41;;;;;;;1.98;1.00;;;;;;;;;;5099328;27;20026;-90
2021/06/04 12:37:06;;;;;;;1.70;1.00;;;;;;;;;;5122069;27;20394;-90
2021/06/04 12:39:41;;;;;;;2.07;1.10;;;;;;;;;;5110978;27;20061;-90
2021/06/04 12:42:11;;;;;;;1.95;1.10;;;;;;;;;;5090160;28;20509;-91
2021/06/04 12:44:38;;;;;;;2.25;0.90;;;;;;;;;;5100628;27;20035;-91
2021/06/04 12:47:04;;;;;;;2.28;1.27;;;;;;;;;;5103887;27;20023;-92
2021/06/04 12:49:30;;;;;;;1.77;1.00;;;;;;;;;;5086579;27;20027;-90
2021/06/04 12:51:55;;;;;;;4.87;1.20;;;;;;;;;;5102260;27;20533;-91
2021/06/04 12:54:25;;;;;;;5.10;1.13;;;;;;;;;;5084724;27;20035;-91
2021/06/04 12:56:53;;;;;;;1.20;0.80;;;;;;;;;;5083746;27;20080;-91
2021/06/04 12:59:26;;;;;;;2.05;1.08;;;;;;;;;;5074976;28;20122;-91
2021/06/04 13:02:10;;;;;;;3.53;1.00;;;;;;;;;;5065880;28;20386;-91
2021/06/04 13:04:42;;;;;;;1.80;1.10;;;;;;;;;;5099434;28;20030;-91
2021/06/04 13:07:11;;;;;;;3.95;1.05;;;;;;;;;;5065615;28;20019;-90
2021/06/04 13:09:41;;;;;;;3.17;1.10;;;;;;;;;;5064330;28;20054;-91
2021/06/04 13:12:33;;;;;;;1.58;1.00;;;;;;;;;;5081141;28;20485;-91
2021/06/04 13:15:16;;;;;;;1.65;1.00;;;;;;;;;;5076105;28;20126;-91
2021/06/04 13:18:01;;;;;;;4.00;1.00;;;;;;;;;;5082355;28;20390;-91
2021/06/04 13:20:40;;;;;;;2.13;1.08;;;;;;;;;;5064536;28;20034;-91
2021/06/04 13:23:12;;;;;;;2.05;1.00;;;;;;;;;;5065317;28;20038;-91
2021/06/04 13:25:38;;;;;;;2.03;1.10;;;;;;;;;;5080231;28;20024;-91
2021/06/04 13:28:22;;;;;;;1.55;1.00;;;;;;;;;;5082482;28;20436;-90
2021/06/04 13:30:58;;;;;;;1.33;0.65;;;;;;;;;;5080933;28;20035;-90
2021/06/04 13:33:53;;;;;;;1.85;1.00;;;;;;;;;;5081267;28;20027;-91
2021/06/04 13:36:20;;;;;;;1.55;1.08;;;;;;;;;;5080414;28;20126;-90
2021/06/04 13:38:51;;;;;;;1.45;0.85;;;;;;;;;;5064562;28;20019;-90
2021/06/04 13:41:25;;;;;;;1.60;1.00;;;;;;;;;;5064153;28;20016;-91
2021/06/04 13:43:53;;;;;;;2.17;1.00;;;;;;;;;;5097362;28;20031;-90
2021/06/04 13:46:23;;;;;;;1.85;0.90;;;;;;;;;;5077688;27;20023;-91
2021/06/04 13:49:11;;;;;;;1.60;1.00;;;;;;;;;;5082947;27;20478;-90
2021/06/04 13:51:57;;;;;;;3.60;1.13;;;;;;;;;;5118889;27;20111;-90
2021/06/04 13:54:24;;;;;;;1.90;1.00;;;;;;;;;;5083621;27;20023;-90
2021/06/04 13:56:50;;;;;;;1.65;1.00;;;;;;;;;;5083248;27;20022;-90
2021/06/04 13:59:15;;;;;;;1.87;1.03;;;;;;;;;;5083334;27;20054;-90
2021/06/04 14:01:50;;;;;;;1.13;0.80;;;;;;;;;;5135578;27;20068;-91
2021/06/04 14:04:17;;;;;;;2.10;0.98;;;;;;;;;;5099535;27;20027;-89
2021/06/04 14:06:49;;;;;;;2.58;1.02;;;;;;;;;;5078564;27;20034;-89
2021/06/04 14:09:36;;;;;;;2.05;0.88;;;;;;;;;;5079484;27;20504;-89
2021/06/04 14:12:20;;;;;;;1.67;0.98;;;;;;;;;;5080251;27;20149;-89
2021/06/04 14:14:47;;;;;;;1.42;1.00;;;;;;;;;;5111603;28;20495;-90
2021/06/04 14:17:42;;;;;;;1.23;0.88;;;;;;;;;;5075720;28;20031;-90
2021/06/04 14:21:18;;;;;;;1.38;0.90;;;;;;;;;;5091313;28;20043;-92
2021/06/04 14:24:24;;;;;;;1.52;1.02;;;;;;;;;;5014145;28;20124;-92
2021/06/04 14:27:24;;;;;;;1.00;0.75;;;;;;;;;;5086495;27;20019;-90
2021/06/04 14:29:59;;;;;;;1.92;0.98;;;;;;;;;;5077207;28;20028;-91
2021/06/04 14:32:34;;;;;;;2.10;0.93;;;;;;;;;;5077510;28;20035;-91
2021/06/04 14:35:06;;;;;;;1.63;0.90;;;;;;;;;;5076555;28;20028;-91
2021/06/04 14:37:46;;;;;;;2.20;0.98;;;;;;;;;;5093050;28;20115;-91
2021/06/04 14:40:33;;;;;;;1.75;0.95;;;;;;;;;;5080309;28;20549;-91
2021/06/04 14:43:03;;;;;;;1.55;0.90;;;;;;;;;;5084828;28;20028;-93
2021/06/04 14:45:29;;;;;;;1.40;0.90;;;;;;;;;;5099673;28;20019;-93
2021/06/04 14:47:54;;;;;;;2.20;1.00;;;;;;;;;;5079056;28;20604;-92
2021/06/04 14:50:25;;;;;;;1.10;0.83;;;;;;;;;;5061583;28;20027;-93
2021/06/04 14:52:50;;;;;;;1.70;0.95;;;;;;;;;;5060599;28;20035;-90
2021/06/04 14:55:17;;;;;;;1.13;0.83;;;;;;;;;;5077009;28;20023;-92
2021/06/04 14:57:42;;;;;;;1.80;1.00;;;;;;;;;;5094033;28;20020;-90
2021/06/04 15:00:08;;;;;;;1.97;1.10;;;;;;;;;;5084449;27;20089;-90
2021/06/04 15:02:34;;;;;;;1.42;0.85;;;;;;;;;;5079910;28;20023;-90
2021/06/04 15:04:59;;;;;;;1.87;1.23;;;;;;;;;;5080002;28;20114;-90
2021/06/04 15:07:25;;;;;;;2.00;1.00;;;;;;;;;;5080340;28;20030;-91
2021/06/04 15:09:50;;;;;;;2.30;1.17;;;;;;;;;;5093530;28;20525;-91
2021/06/04 15:12:18;;;;;;;3.77;1.43;;;;;;;;;;5107175;27;20024;-91
2021/06/04 15:14:44;;;;;;;1.63;1.10;;;;;;;;;;5100954;27;20027;-91
2021/06/04 15:17:09;;;;;;;2.93;1.27;;;;;;;;;;5083321;27;20091;-91
2021/06/04 15:19:40;;;;;;;2.13;1.13;;;;;;;;;;5084182;27;20279;-91
2021/06/04 15:22:15;;;;;;;3.40;1.17;;;;;;;;;;5083507;27;20397;-91
2021/06/04 15:24:41;;;;;;;2.95;1.00;;;;;;;;;;5086961;27;20029;-90
2021/06/04 15:27:20;;;;;;;2.10;1.30;;;;;;;;;;5084106;27;20039;-90
2021/06/04 15:29:48;;;;;;;2.35;1.00;;;;;;;;;;5084427;27;20038;-90
2021/06/04 15:32:13;;;;;;;1.42;1.02;;;;;;;;;;5083900;27;20478;-90
2021/06/04 15:34:42;;;;;;;2.30;1.27;;;;;;;;;;5084068;27;20030;-91
2021/06/04 15:37:07;;;;;;;2.72;1.10;;;;;;;;;;5083845;27;20122;-91
2021/06/04 15:39:33;;;;;;;1.50;0.90;;;;;;;;;;5084252;27;20543;-90
2021/06/04 15:42:26;;;;;;;2.10;1.20;;;;;;;;;;5085964;27;20015;-93
2021/06/04 15:55:35;;;;;;;1.73;1.00;;;;;;;;;;5966189;22;20077;-76
2021/06/04 15:58:01;;;;;;;1.80;1.30;;;;;;;;;;5041332;28;20498;-76
2021/06/04 16:00:27;;;;;;;2.00;1.20;;;;;;;;;;5074318;28;20032;-77
2021/06/04 16:02:53;;;;;;;3.42;1.23;;;;;;;;;;5074672;28;20024;-76
2021/06/04 16:05:21;;;;;;;2.03;1.17;;;;;;;;;;5073905;28;20113;-76
2021/06/04 16:07:46;;;;;;;2.17;1.23;;;;;;;;;;5092415;28;20525;-76
2021/06/04 16:10:13;;;;;;;1.80;1.13;;;;;;;;;;5040016;28;20040;-77
2021/06/04 16:12:38;;;;;;;1.65;1.10;;;;;;;;;;5057691;28;20440;-77
2021/06/04 16:15:05;;;;;;;1.97;1.10;;;;;;;;;;5057209;28;20060;-77
2021/06/04 16:17:31;;;;;;;1.73;1.05;;;;;;;;;;5040291;28;20090;-77
2021/06/04 16:19:56;;;;;;;1.90;1.30;;;;;;;;;;5074229;28;20478;-76
2021/06/04 16:22:21;;;;;;;2.10;1.33;;;;;;;;;;5057476;28;20032;-77
2021/06/04 16:24:47;;;;;;;1.70;1.10;;;;;;;;;;5073947;28;20028;-77
2021/06/04 16:27:13;;;;;;;2.00;1.20;;;;;;;;;;5073888;28;20034;-76
2021/06/04 16:29:38;;;;;;;1.52;1.08;;;;;;;;;;5056940;28;20165;-77
2021/06/04 16:32:05;;;;;;;1.87;1.10;;;;;;;;;;5057220;28;20028;-76
2021/06/04 16:34:33;;;;;;;1.88;1.10;;;;;;;;;;5040768;28;20513;-76
2021/06/04 16:37:01;;;;;;;1.73;1.23;;;;;;;;;;5057136;28;20032;-76
2021/06/04 16:39:26;;;;;;;2.50;1.30;;;;;;;;;;5073596;28;20023;-76
2021/06/04 16:41:51;;;;;;;2.53;1.00;;;;;;;;;;5073454;28;20028;-77
2021/06/04 16:44:17;;;;;;;2.43;1.40;;;;;;;;;;5073739;28;20034;-77
2021/06/04 16:46:42;;;;;;;1.60;0.93;;;;;;;;;;5073507;28;20092;-76
2021/06/04 16:49:08;;;;;;;3.00;1.30;;;;;;;;;;5056835;28;20027;-76
2021/06/04 16:51:34;;;;;;;2.33;1.20;;;;;;;;;;5073341;28;20065;-76
2021/06/04 16:53:59;;;;;;;2.38;1.02;;;;;;;;;;5073379;28;20024;-77
2021/06/04 16:56:25;;;;;;;1.50;1.00;;;;;;;;;;5065067;28;20046;-77
2021/06/04 16:58:50;;;;;;;1.73;1.17;;;;;;;;;;5094684;28;20070;-77
2021/06/04 17:01:15;;;;;;;1.77;1.10;;;;;;;;;;5098419;28;20026;-77
2021/06/04 17:03:41;;;;;;;1.90;1.20;;;;;;;;;;5096367;28;20058;-77
2021/06/04 17:06:07;;;;;;;1.85;1.20;;;;;;;;;;5096587;28;20020;-78
2021/06/04 17:08:33;;;;;;;2.07;1.20;;;;;;;;;;5081062;28;20039;-78
2021/06/04 17:10:58;;;;;;;2.22;1.10;;;;;;;;;;5083198;28;20116;-78
2021/06/04 17:13:24;;;;;;;2.23;1.30;;;;;;;;;;5082322;28;20152;-77
2021/06/04 17:15:50;;;;;;;2.53;1.20;;;;;;;;;;5098660;28;20028;-77
2021/06/04 17:18:15;;;;;;;2.47;1.15;;;;;;;;;;5081197;28;20514;-77
2021/06/04 17:20:41;;;;;;;3.23;1.20;;;;;;;;;;5096360;28;20028;-77
2021/06/04 17:23:07;;;;;;;2.40;1.20;;;;;;;;;;5096888;28;20035;-77
2021/06/04 17:25:32;;;;;;;1.83;1.23;;;;;;;;;;5097056;28;20027;-77
2021/06/04 17:28:00;;;;;;;2.40;1.60;;;;;;;;;;5096052;28;20088;-77
2021/06/04 17:30:26;;;;;;;1.80;1.17;;;;;;;;;;5094135;28;20020;-77
2021/06/04 17:32:52;;;;;;;1.90;1.20;;;;;;;;;;5094483;28;20028;-77
2021/06/04 17:35:17;;;;;;;1.97;1.20;;;;;;;;;;5093600;28;20077;-77
2021/06/04 17:37:43;;;;;;;2.50;1.27;;;;;;;;;;5078742;28;20038;-77
2021/06/04 17:40:09;;;;;;;2.20;1.20;;;;;;;;;;5098376;28;20020;-78
2021/06/04 17:42:34;;;;;;;2.90;1.40;;;;;;;;;;5064124;28;20019;-78
2021/06/04 17:45:00;;;;;;;2.60;1.23;;;;;;;;;;5097334;28;20351;-79
2021/06/04 17:47:25;;;;;;;1.93;1.23;;;;;;;;;;5080481;28;20110;-79
2021/06/04 17:49:51;;;;;;;2.10;1.13;;;;;;;;;;5098270;28;20106;-79
2021/06/04 17:52:25;;;;;;;2.20;1.23;;;;;;;;;;5095352;28;20080;-79
2021/06/04 17:54:54;;;;;;;2.10;1.20;;;;;;;;;;5081441;28;20023;-77
2021/06/04 17:57:20;;;;;;;1.73;1.20;;;;;;;;;;5092430;28;20039;-77
2021/06/04 17:59:46;;;;;;;2.10;1.30;;;;;;;;;;5095922;28;20039;-78
2021/06/04 18:02:12;;;;;;;1.92;1.20;;;;;;;;;;5080598;28;20548;-78
2021/06/04 18:04:37;;;;;;;2.05;1.20;;;;;;;;;;5076523;28;20386;-77
2021/06/04 18:07:03;;;;;;;2.20;1.30;;;;;;;;;;5077371;28;20485;-77
2021/06/04 18:09:28;;;;;;;2.87;1.50;;;;;;;;;;5095118;28;20032;-77
2021/06/04 18:11:53;;;;;;;2.10;1.30;;;;;;;;;;5112372;28;20529;-77
2021/06/04 18:14:21;;;;;;;2.37;1.20;;;;;;;;;;5059168;28;20464;-77
2021/06/04 18:16:47;;;;;;;3.65;1.50;;;;;;;;;;5093759;28;20123;-77
2021/06/04 18:19:12;;;;;;;2.00;1.27;;;;;;;;;;5076910;28;20033;-78
2021/06/04 18:21:37;;;;;;;1.93;1.27;;;;;;;;;;5094114;28;20098;-77
2021/06/04 18:24:03;;;;;;;2.13;1.20;;;;;;;;;;5059349;28;20134;-77
2021/06/04 18:26:28;;;;;;;1.60;1.20;;;;;;;;;;5091958;28;20024;-77
2021/06/04 18:28:54;;;;;;;2.30;1.30;;;;;;;;;;5091716;28;20074;-77
2021/06/04 18:31:20;;;;;;;2.00;1.20;;;;;;;;;;5077330;28;20104;-78
2021/06/04 18:33:46;;;;;;;2.70;1.30;;;;;;;;;;5093834;28;20077;-77
2021/06/04 18:36:11;;;;;;;2.15;1.38;;;;;;;;;;5092166;28;20027;-76
2021/06/04 18:38:37;;;;;;;2.77;1.23;;;;;;;;;;5090949;28;20042;-76
2021/06/04 18:41:02;;;;;;;1.77;1.33;;;;;;;;;;5061268;28;20097;-76
2021/06/04 18:43:30;;;;;;;1.97;1.30;;;;;;;;;;5062248;28;20447;-78
2021/06/04 18:45:55;;;;;;;2.67;1.40;;;;;;;;;;5084618;28;20390;-79
2021/06/04 18:48:21;;;;;;;2.07;1.27;;;;;;;;;;5086253;28;20020;-78
2021/06/04 18:50:47;;;;;;;1.83;1.30;;;;;;;;;;5095353;28;20034;-78
2021/06/04 18:53:15;;;;;;;2.27;1.43;;;;;;;;;;5085151;28;20046;-78
2021/06/04 18:55:41;;;;;;;2.58;1.30;;;;;;;;;;5083981;28;20032;-78
2021/06/04 18:58:07;;;;;;;2.13;1.20;;;;;;;;;;5084460;28;20058;-78
2021/06/04 19:00:41;;;;;;;2.38;1.38;;;;;;;;;;5086374;28;20035;-78
2021/06/04 19:03:06;;;;;;;2.58;1.40;;;;;;;;;;5102588;28;20490;-78
2021/06/04 19:05:31;;;;;;;1.73;1.03;;;;;;;;;;5066815;28;20020;-78
2021/06/04 19:07:57;;;;;;;2.30;1.40;;;;;;;;;;5098705;28;20040;-78
2021/06/04 19:10:23;;;;;;;3.40;1.50;;;;;;;;;;5058320;28;20085;-76
2021/06/04 19:12:51;;;;;;;2.85;1.55;;;;;;;;;;5074937;28;20703;-75
2021/06/04 19:15:16;;;;;;;1.90;1.20;;;;;;;;;;5074710;28;20040;-76
2021/06/04 19:17:42;;;;;;;1.87;1.20;;;;;;;;;;5074635;28;20096;-76
2021/06/04 19:20:09;;;;;;;2.70;1.40;;;;;;;;;;5074778;28;20059;-76
2021/06/04 19:22:35;;;;;;;1.90;1.38;;;;;;;;;;5092210;28;20023;-76
2021/06/04 19:25:00;;;;;;;2.28;1.27;;;;;;;;;;5074755;28;20077;-76
2021/06/04 19:27:26;;;;;;;2.23;1.40;;;;;;;;;;5091928;28;20110;-76
2021/06/04 19:29:51;;;;;;;2.50;1.20;;;;;;;;;;5091470;28;20459;-76
2021/06/04 19:32:17;;;;;;;2.20;1.20;;;;;;;;;;5109839;28;20110;-76
2021/06/04 19:34:42;;;;;;;2.77;1.33;;;;;;;;;;5074918;28;20124;-76
2021/06/04 19:37:07;;;;;;;2.03;1.40;;;;;;;;;;5091729;28;20107;-76
2021/06/04 19:39:33;;;;;;;3.13;1.37;;;;;;;;;;5091895;28;20023;-76
2021/06/04 19:41:58;;;;;;;2.27;1.33;;;;;;;;;;5074458;28;20496;-76
2021/06/04 19:44:27;;;;;;;3.60;1.60;;;;;;;;;;5091914;28;20034;-76
2021/06/04 19:46:53;;;;;;;1.95;1.27;;;;;;;;;;5078983;28;20031;-76
2021/06/04 19:49:18;;;;;;;2.53;1.50;;;;;;;;;;5113284;28;20035;-76
2021/06/04 19:51:44;;;;;;;1.93;1.10;;;;;;;;;;5061289;28;20047;-76
2021/06/04 19:54:10;;;;;;;2.33;1.30;;;;;;;;;;5112763;28;20123;-76
2021/06/04 19:56:36;;;;;;;1.83;1.23;;;;;;;;;;5090353;28;20120;-76
2021/06/04 19:59:03;;;;;;;2.35;1.48;;;;;;;;;;5063533;28;20028;-76
2021/06/04 20:01:29;;;;;;;2.22;1.60;;;;;;;;;;5094920;28;20026;-76
2021/06/04 20:03:55;;;;;;;2.10;1.23;;;;;;;;;;5094861;28;20064;-75
2021/06/04 20:06:21;;;;;;;2.22;1.40;;;;;;;;;;5094501;28;20030;-76
2021/06/04 20:08:46;;;;;;;2.00;1.20;;;;;;;;;;5078890;28;20062;-76
2021/06/04 20:11:13;;;;;;;2.73;1.40;;;;;;;;;;5095981;28;20035;-76
2021/06/04 20:13:38;;;;;;;;;;;;;;;;;;5097002;28;20019;-75
2021/06/04 20:16:04;;;;;;;1.83;1.23;;;;;;;;;;5077747;28;19918;-75
2021/06/04 20:18:30;;;;;;;2.37;1.50;;;;;;;;;;5094416;28;20482;-74
2021/06/04 20:20:55;;;;;;;1.90;1.20;;;;;;;;;;5060718;28;20016;-74
2021/06/04 20:23:21;;;;;;;2.17;1.43;;;;;;;;;;5077751;28;20249;-75
2021/06/04 20:25:50;;;;;;;2.07;1.40;;;;;;;;;;5094619;28;20033;-75
2021/06/04 20:28:17;;;;;;;1.80;1.27;;;;;;;;;;5077945;28;20058;-75
2021/06/04 20:30:44;;;;;;;2.95;1.48;;;;;;;;;;5060974;28;20063;-75
2021/06/04 20:33:09;;;;;;;2.78;1.25;;;;;;;;;;5077909;28;20023;-75
2021/06/04 20:35:35;;;;;;;2.55;1.33;;;;;;;;;;5077152;28;20081;-75
2021/06/04 20:38:02;;;;;;;1.80;1.23;;;;;;;;;;5077623;28;20054;-75
2021/06/04 20:40:29;;;;;;;1.85;1.15;;;;;;;;;;5094686;28;20110;-75
2021/06/04 20:42:54;;;;;;;2.90;1.27;;;;;;;;;;5059689;28;20096;-75
2021/06/04 20:45:25;;;;;;;2.83;1.47;;;;;;;;;;5112366;28;20027;-75
2021/06/04 20:47:51;;;;;;;2.30;1.30;;;;;;;;;;5077230;28;20027;-75
2021/06/04 20:50:17;;;;;;;2.20;1.47;;;;;;;;;;5077000;28;20035;-75
2021/06/04 20:52:42;;;;;;;2.17;1.40;;;;;;;;;;5059942;28;20092;-74
2021/06/04 20:55:09;;;;;;;1.83;1.33;;;;;;;;;;5076831;28;20023;-74
2021/06/04 20:57:35;;;;;;;1.95;1.30;;;;;;;;;;5046288;28;20032;-75
2021/06/04 21:00:00;;;;;;;2.13;1.10;;;;;;;;;;5076501;28;20460;-74
2021/06/04 21:02:26;;;;;;;2.00;1.43;;;;;;;;;;5111677;28;20099;-74
2021/06/04 21:04:51;;;;;;;2.77;1.30;;;;;;;;;;5092875;28;20031;-74
2021/06/04 21:07:16;;;;;;;2.30;1.23;;;;;;;;;;5093142;28;20054;-75
2021/06/04 21:09:42;;;;;;;1.90;1.20;;;;;;;;;;5083191;28;20074;-75
2021/06/04 21:12:08;;;;;;;1.90;1.30;;;;;;;;;;5077194;28;20106;-75
2021/06/04 21:14:34;;;;;;;2.10;1.40;;;;;;;;;;5059638;28;20470;-75
2021/06/04 21:16:59;;;;;;;2.25;1.30;;;;;;;;;;5076177;28;20028;-75
2021/06/04 21:19:25;;;;;;;2.90;1.40;;;;;;;;;;5110883;28;20047;-75
2021/06/04 21:21:50;;;;;;;2.30;1.30;;;;;;;;;;5075632;28;20114;-76
2021/06/04 21:24:15;;;;;;;2.10;1.33;;;;;;;;;;5111084;28;20032;-75
2021/06/04 21:26:42;;;;;;;2.30;1.40;;;;;;;;;;5075772;28;20110;-74
2021/06/04 21:29:07;;;;;;;;;;;;;;;;;;5075722;28;20035;-75
2021/06/04 21:31:33;;;;;;;2.00;1.30;;;;;;;;;;5084080;28;19923;-74
2021/06/04 21:33:59;;;;;;;1.80;1.30;;;;;;;;;;5092358;28;20031;-74
2021/06/04 21:36:25;;;;;;;2.30;1.27;;;;;;;;;;5075836;28;20611;-74
2021/06/04 21:38:51;;;;;;;;;;;;;;;;;;5075564;28;20031;-73
2021/06/04 21:41:18;;;;;;;1.85;1.30;;;;;;;;;;5110145;28;19911;-73
2021/06/04 21:43:44;;;;;;;2.30;1.38;;;;;;;;;;5092247;28;20027;-74
2021/06/04 21:46:11;;;;;;;2.15;1.33;;;;;;;;;;5076861;28;20023;-75
2021/06/04 21:48:36;;;;;;;1.73;1.15;;;;;;;;;;5104594;22;20132;-77
2021/06/04 21:51:02;;;;;;;1.60;1.10;;;;;;;;;;5059628;28;20095;-77
2021/06/04 21:53:29;;;;;;;2.22;1.20;;;;;;;;;;5061176;28;20031;-78
2021/06/04 21:55:54;;;;;;;;;;;;;;;;;;5083847;28;20028;-77
2021/06/04 21:58:20;;;;;;;2.10;1.35;;;;;;;;;;5096940;28;19916;-77
2021/06/04 22:00:47;;;;;;;1.93;1.23;;;;;;;;;;5081087;28;20076;-77
2021/06/04 22:03:18;;;;;;;2.20;1.40;;;;;;;;;;5080603;28;20057;-78
2021/06/04 22:05:43;;;;;;;2.10;1.23;;;;;;;;;;5061179;28;20496;-77
2021/06/04 22:08:09;;;;;;;2.20;1.30;;;;;;;;;;5059733;28;20055;-77
2021/06/04 22:10:34;;;;;;;2.20;1.37;;;;;;;;;;5060387;28;20375;-77
2021/06/04 22:13:00;;;;;;;1.80;1.20;;;;;;;;;;5060365;28;20386;-77
2021/06/04 22:15:27;;;;;;;2.53;1.33;;;;;;;;;;5078096;28;20035;-77
2021/06/04 22:17:52;;;;;;;2.15;1.20;;;;;;;;;;5079921;28;20016;-77
2021/06/04 22:20:19;;;;;;;2.10;1.30;;;;;;;;;;5096943;28;20034;-77
2021/06/04 22:22:44;;;;;;;2.05;1.20;;;;;;;;;;5079631;28;20536;-77
2021/06/04 22:25:21;;;;;;;3.83;1.40;;;;;;;;;;5075714;28;20032;-77
2021/06/04 22:27:47;;;;;;;2.00;1.17;;;;;;;;;;5072125;28;20145;-77
2021/06/04 22:30:13;;;;;;;2.05;1.40;;;;;;;;;;5079126;28;20515;-77
2021/06/04 22:32:38;;;;;;;1.80;1.20;;;;;;;;;;5095739;28;20123;-77
2021/06/04 22:35:08;;;;;;;1.97;1.43;;;;;;;;;;5075466;28;20128;-77
2021/06/04 22:37:33;;;;;;;1.70;1.20;;;;;;;;;;5064800;28;20027;-77
2021/06/04 22:39:59;;;;;;;1.97;1.20;;;;;;;;;;5077038;28;20501;-78
2021/06/04 22:42:24;;;;;;;2.13;1.27;;;;;;;;;;5080272;28;20432;-77
2021/06/04 22:44:49;;;;;;;1.47;1.17;;;;;;;;;;5095174;28;20180;-77
2021/06/04 22:47:15;;;;;;;1.87;1.23;;;;;;;;;;5095640;28;20051;-77
2021/06/04 22:49:40;;;;;;;2.27;1.30;;;;;;;;;;5078519;28;20031;-77
2021/06/04 22:52:06;;;;;;;2.20;1.17;;;;;;;;;;5078428;28;20070;-77
2021/06/04 22:54:31;;;;;;;2.13;1.30;;;;;;;;;;5075042;28;20039;-77
2021/06/04 22:56:56;;;;;;;1.97;1.30;;;;;;;;;;5065806;28;20154;-77
2021/06/04 22:59:22;;;;;;;2.00;1.20;;;;;;;;;;5087082;28;20076;-77
2021/06/04 23:01:47;;;;;;;2.10;1.30;;;;;;;;;;5095444;28;20043;-77
2021/06/04 23:04:12;;;;;;;2.20;1.30;;;;;;;;;;5069616;28;20024;-77
2021/06/04 23:06:38;;;;;;;1.70;1.27;;;;;;;;;;5041638;28;20028;-77
2021/06/04 23:09:12;;;;;;;2.40;1.33;;;;;;;;;;5058604;28;20020;-77
2021/06/04 23:11:37;;;;;;;1.95;1.23;;;;;;;;;;5074706;28;20028;-77
2021/06/04 23:14:03;;;;;;;2.33;1.43;;;;;;;;;;5074337;28;20027;-74
2021/06/04 23:16:28;;;;;;;3.00;1.40;;;;;;;;;;5064140;28;20381;-75
2021/06/04 23:18:54;;;;;;;1.90;1.47;;;;;;;;;;5074221;28;20479;-76
2021/06/04 23:21:19;;;;;;;1.70;1.20;;;;;;;;;;5079146;28;20016;-77
2021/06/04 23:23:52;;;;;;;1.67;1.20;;;;;;;;;;5085156;28;20430;-77
2021/06/04 23:26:20;;;;;;;2.28;1.30;;;;;;;;;;5083210;28;20032;-77
2021/06/04 23:28:46;;;;;;;1.77;1.23;;;;;;;;;;5076951;28;20036;-77
2021/06/04 23:31:11;;;;;;;2.30;1.20;;;;;;;;;;5079643;28;20028;-77
2021/06/04 23:33:40;;;;;;;2.23;1.20;;;;;;;;;;5081771;28;20028;-78
2021/06/04 23:36:08;;;;;;;2.22;1.23;;;;;;;;;;5099996;28;20028;-77
2021/06/04 23:38:34;;;;;;;1.58;1.20;;;;;;;;;;5118146;28;20023;-77
2021/06/04 23:40:59;;;;;;;2.47;1.40;;;;;;;;;;5083002;28;20348;-77
2021/06/04 23:43:24;;;;;;;1.90;1.33;;;;;;;;;;5099851;28;20638;-78
2021/06/04 23:45:50;;;;;;;1.63;1.20;;;;;;;;;;5099527;28;20192;-77
2021/06/04 23:48:15;;;;;;;1.90;1.30;;;;;;;;;;5118076;28;20076;-77
2021/06/04 23:50:40;;;;;;;1.87;1.07;;;;;;;;;;5065354;28;20118;-77
2021/06/04 23:53:08;;;;;;;1.87;1.20;;;;;;;;;;5099614;28;20107;-77
2021/06/04 23:55:33;;;;;;;2.05;1.15;;;;;;;;;;5082623;28;20023;-77
2021/06/04 23:57:59;;;;;;;1.70;1.10;;;;;;;;;;5099673;28;20158;-77
